Contact Us:
Email: info@sawbill.com
Phone: (218)663-7150
Fax: (218)663-7980
Mail: 4620 Sawbill Trail
Box 2129
Tofte, MN 55615


Powered by
Movable Type 3.15
 
Sawbill Weather History Archives: February 2013
Current Sawbill Weather History | « January 2013 | March 2013 »


Date

High
Temperature

Low
Temperature

Barometric
Pressure

Relative
Humidity 7AM

9 AM
Temperature

Moisture

Snow

2/28/13 27 4 30.62 44% 5 0
2/27/13 28 19 30.45 62% 19 0
2/26/13 37 7 30.24 81% 19 0
2/25/13 36 8 30.33 58% 8 0
2/24/13 33 6 30.33 65% 13 0
2/23/13 27 6 30.27 65% 6 0
2/22/13 25 14 30.09 80% 22 .1" 1"
2/21/13 23 -13 30.36 87% 20 Trace Trace
2/20/13 10 -17 30.65 67% -13 0
2/19/13 3 -12 30.62 67% -11 0
2/18/13 25 -5 30.12 67% -5 .15" 2"
2/17/13 22 8 29.85 79% 22 .15" 1.5"
2/16/13 9 -19 30.24 49% 8 Trace Trace
2/15/13 9 22 30.36 49% -20 Trace Trace
2/14/13 18 2 30.33 49% 2 0
2/13/13 24 18 30.06 71% 18 Trace Trace
2/12/13 27 14 29.91 80% 20 0
2/11/13 20 14 30.12 71% 14 Trace Trace
2/10/13 27 20 29.80 77% 20 .8" 9"
2/9/13 24 18 30.15 89% 24 Trace Trace
2/8/13 20 0 30.36 71% 18 0 0
2/7/13 20 -1 30.59 60% -1 Trace Trace
2/6/13 15 4 30.47 72% 11 .07" 1.5"
2/5/13 12 -8 30.33 68% 4 Trace Trace
2/4/13 7 -17 29.97 68% 4 .29" 3.5"
2/3/13 1 -17 30.21 68% -17 0
2/2/13 6 -19 30.12 68% -4 Trace Trace
2/1/13 -4 -19 30.30 68% -17 0
 


Home I Trip Planning I Rentals and Outfitting I Reservations I Campgrounds I Sawbill Store I Sawbill News I Contact

© 1997 - 2017, Sawbill Canoe Outfitters, Inc. I Privacy Policy